HL1179 RKTU-RKTU
Flight info
| Callsign | HL1179 |
|---|---|
| Flight time | 0h 19m |
| Altitude | 3000 |
| Route | DCT JINCHEON DCT |
| Aircraft | DA40/L-SDFGRY/S/S |
Departure
| Time | 2026-04-23 12:29 |
|---|---|
| Airport | Cheongju International Airport/Cheongju Air Base (K-59/G-513) (RKTU) |
Arrival
| Time | 2026-04-23 12:48 |
|---|---|
| Airport | Cheongju International Airport/Cheongju Air Base (K-59/G-513) (RKTU) |
| Time | Latitude | Longitude | Altitude | Speed | Heading |
|---|---|---|---|---|---|
| 2026-04-23 11:59 | 36.71920 | 127.49644 | 190 ft | 0 kts | 52° |
| 2026-04-23 11:59 | 36.71919 | 127.49641 | 190 ft | 0 kts | 52° |
| 2026-04-23 12:20 | 36.71923 | 127.49648 | 190 ft | 2 kts | 53° |
| 2026-04-23 12:20 | 36.71931 | 127.49654 | 190 ft | 1 kts | 343° |
| 2026-04-23 12:21 | 36.71950 | 127.49640 | 190 ft | 6 kts | 317° |
| 2026-04-23 12:21 | 36.71979 | 127.49608 | 190 ft | 6 kts | 340° |
| 2026-04-23 12:21 | 36.72020 | 127.49634 | 190 ft | 9 kts | 47° |
| 2026-04-23 12:21 | 36.72069 | 127.49714 | 190 ft | 14 kts | 54° |
| 2026-04-23 12:22 | 36.72141 | 127.49832 | 190 ft | 19 kts | 53° |
| 2026-04-23 12:22 | 36.72230 | 127.49976 | 190 ft | 20 kts | 52° |
| 2026-04-23 12:22 | 36.72302 | 127.50095 | 190 ft | 10 kts | 66° |
| 2026-04-23 12:22 | 36.72333 | 127.50145 | 190 ft | 7 kts | 44° |
| 2026-04-23 12:23 | 36.72343 | 127.50218 | 190 ft | 11 kts | 133° |
| 2026-04-23 12:23 | 36.72274 | 127.50289 | 190 ft | 15 kts | 142° |
| 2026-04-23 12:23 | 36.72196 | 127.50268 | 190 ft | 12 kts | 229° |
| 2026-04-23 12:23 | 36.72138 | 127.50173 | 190 ft | 15 kts | 233° |
| 2026-04-23 12:24 | 36.72065 | 127.50055 | 190 ft | 18 kts | 232° |
| 2026-04-23 12:24 | 36.71997 | 127.49940 | 190 ft | 13 kts | 232° |
| 2026-04-23 12:24 | 36.71938 | 127.49851 | 190 ft | 14 kts | 232° |
| 2026-04-23 12:24 | 36.71878 | 127.49814 | 190 ft | 6 kts | 156° |
| 2026-04-23 12:25 | 36.71858 | 127.49831 | 190 ft | 2 kts | 143° |
| 2026-04-23 12:25 | 36.71845 | 127.49843 | 190 ft | 0 kts | 141° |
| 2026-04-23 12:27 | 36.71820 | 127.49863 | 190 ft | 10 kts | 144° |
| 2026-04-23 12:27 | 36.71789 | 127.49944 | 190 ft | 9 kts | 72° |
| 2026-04-23 12:27 | 36.71812 | 127.49983 | 190 ft | 20 kts | 44° |
| 2026-04-23 12:28 | 36.72028 | 127.50307 | 193 ft | 73 kts | 52° |
| 2026-04-23 12:28 | 36.72371 | 127.50892 | 290 ft | 94 kts | 47° |
| 2026-04-23 12:28 | 36.72798 | 127.51554 | 495 ft | 99 kts | 43° |
| 2026-04-23 12:28 | 36.73255 | 127.52212 | 728 ft | 100 kts | 41° |
| 2026-04-23 12:29 | 36.73721 | 127.52831 | 957 ft | 99 kts | 29° |
| 2026-04-23 12:29 | 36.74342 | 127.53046 | 1191 ft | 92 kts | 346° |
| 2026-04-23 12:29 | 36.74973 | 127.53022 | 1439 ft | 90 kts | 346° |
| 2026-04-23 12:29 | 36.75599 | 127.52957 | 1684 ft | 89 kts | 342° |
| 2026-04-23 12:30 | 36.76200 | 127.52847 | 1907 ft | 89 kts | 336° |
| 2026-04-23 12:30 | 36.76796 | 127.52674 | 2154 ft | 88 kts | 335° |
| 2026-04-23 12:30 | 36.77392 | 127.52518 | 2390 ft | 87 kts | 334° |
| 2026-04-23 12:30 | 36.78007 | 127.52318 | 2477 ft | 100 kts | 332° |
| 2026-04-23 12:31 | 36.78706 | 127.52029 | 2483 ft | 108 kts | 332° |
| 2026-04-23 12:31 | 36.79442 | 127.51775 | 2511 ft | 110 kts | 335° |
| 2026-04-23 12:31 | 36.80188 | 127.51468 | 2480 ft | 115 kts | 330° |
| 2026-04-23 12:31 | 36.80952 | 127.51138 | 2519 ft | 113 kts | 333° |
| 2026-04-23 12:32 | 36.81690 | 127.50819 | 2509 ft | 115 kts | 331° |
| 2026-04-23 12:32 | 36.82478 | 127.50417 | 2471 ft | 117 kts | 329° |
| 2026-04-23 12:32 | 36.83256 | 127.49997 | 2489 ft | 115 kts | 327° |
| 2026-04-23 12:32 | 36.83971 | 127.49519 | 2500 ft | 114 kts | 323° |
| 2026-04-23 12:33 | 36.84679 | 127.49050 | 2511 ft | 114 kts | 325° |
| 2026-04-23 12:33 | 36.85385 | 127.48598 | 2500 ft | 114 kts | 326° |
| 2026-04-23 12:33 | 36.86143 | 127.48167 | 2376 ft | 123 kts | 329° |
| 2026-04-23 12:33 | 36.86709 | 127.47553 | 2445 ft | 108 kts | 275° |
| 2026-04-23 12:34 | 36.86375 | 127.46709 | 2434 ft | 114 kts | 233° |
| 2026-04-23 12:34 | 36.86221 | 127.45856 | 2450 ft | 108 kts | 300° |
| 2026-04-23 12:34 | 36.86886 | 127.45370 | 2475 ft | 114 kts | 339° |
| 2026-04-23 12:34 | 36.87697 | 127.45581 | 2490 ft | 125 kts | 15° |
| 2026-04-23 12:35 | 36.88480 | 127.46060 | 2510 ft | 124 kts | 19° |
| 2026-04-23 12:35 | 36.89200 | 127.46539 | 2495 ft | 110 kts | 19° |
| 2026-04-23 12:35 | 36.89801 | 127.46948 | 2527 ft | 82 kts | 17° |
| 2026-04-23 12:35 | 36.90276 | 127.47285 | 2519 ft | 77 kts | 8° |
| 2026-04-23 12:36 | 36.90770 | 127.47558 | 2518 ft | 75 kts | 7° |
| 2026-04-23 12:36 | 36.91245 | 127.47656 | 2524 ft | 66 kts | 336° |
| 2026-04-23 12:36 | 36.91722 | 127.47643 | 2525 ft | 72 kts | 357° |
| 2026-04-23 12:36 | 36.92189 | 127.47984 | 2522 ft | 83 kts | 29° |
| 2026-04-23 12:37 | 36.92504 | 127.48619 | 2524 ft | 89 kts | 56° |
| 2026-04-23 12:37 | 36.92848 | 127.49191 | 2542 ft | 78 kts | 17° |
| 2026-04-23 12:37 | 36.93353 | 127.49462 | 2517 ft | 81 kts | 4° |
| 2026-04-23 12:37 | 36.93946 | 127.49687 | 2510 ft | 99 kts | 3° |
| 2026-04-23 12:38 | 36.94698 | 127.49916 | 2508 ft | 117 kts | 2° |
| 2026-04-23 12:38 | 36.95526 | 127.50151 | 2516 ft | 122 kts | 2° |
| 2026-04-23 12:38 | 36.96331 | 127.50545 | 2566 ft | 129 kts | 37° |
| 2026-04-23 12:38 | 36.96522 | 127.51640 | 2592 ft | 137 kts | 109° |
| 2026-04-23 12:39 | 36.95841 | 127.52329 | 2596 ft | 127 kts | 178° |
| 2026-04-23 12:39 | 36.94971 | 127.52347 | 2584 ft | 134 kts | 162° |
| 2026-04-23 12:39 | 36.94494 | 127.53329 | 2566 ft | 144 kts | 84° |
| 2026-04-23 12:39 | 36.95079 | 127.54222 | 2540 ft | 128 kts | 4° |
| 2026-04-23 12:40 | 36.95751 | 127.53793 | 2524 ft | 113 kts | 284° |
| 2026-04-23 12:40 | 36.95216 | 127.53233 | 2480 ft | 139 kts | 162° |
| 2026-04-23 12:40 | 36.94371 | 127.53734 | 2520 ft | 131 kts | 178° |
| 2026-04-23 12:40 | 36.93476 | 127.53575 | 2488 ft | 127 kts | 198° |
| 2026-04-23 12:41 | 36.92682 | 127.53391 | 2807 ft | 102 kts | 197° |
| 2026-04-23 12:41 | 36.92009 | 127.53229 | 2938 ft | 101 kts | 199° |
| 2026-04-23 12:41 | 36.91273 | 127.53066 | 2944 ft | 113 kts | 194° |
| 2026-04-23 12:41 | 36.90464 | 127.52971 | 2977 ft | 119 kts | 189° |
| 2026-04-23 12:42 | 36.89577 | 127.52965 | 2945 ft | 129 kts | 181° |
| 2026-04-23 12:42 | 36.88656 | 127.53179 | 2936 ft | 134 kts | 172° |
| 2026-04-23 12:42 | 36.87740 | 127.53429 | 2945 ft | 134 kts | 178° |
| 2026-04-23 12:42 | 36.86847 | 127.53378 | 2950 ft | 127 kts | 199° |
| 2026-04-23 12:43 | 36.85973 | 127.53106 | 2950 ft | 127 kts | 202° |
| 2026-04-23 12:43 | 36.85126 | 127.52785 | 2955 ft | 126 kts | 206° |
| 2026-04-23 12:43 | 36.84267 | 127.52496 | 2954 ft | 128 kts | 199° |
| 2026-04-23 12:43 | 36.83395 | 127.52286 | 2980 ft | 127 kts | 197° |
| 2026-04-23 12:44 | 36.82549 | 127.52058 | 2772 ft | 127 kts | 199° |
| 2026-04-23 12:44 | 36.81692 | 127.51894 | 2607 ft | 125 kts | 187° |
| 2026-04-23 12:44 | 36.80799 | 127.51994 | 2334 ft | 132 kts | 176° |
| 2026-04-23 12:44 | 36.79927 | 127.52348 | 2156 ft | 131 kts | 162° |
| 2026-04-23 12:45 | 36.79102 | 127.52805 | 1870 ft | 129 kts | 161° |
| 2026-04-23 12:45 | 36.78283 | 127.53258 | 1578 ft | 124 kts | 161° |
| 2026-04-23 12:45 | 36.77518 | 127.53584 | 1303 ft | 109 kts | 172° |
| 2026-04-23 12:45 | 36.76836 | 127.53790 | 1146 ft | 96 kts | 169° |
| 2026-04-23 12:46 | 36.76202 | 127.54053 | 1026 ft | 94 kts | 167° |
| 2026-04-23 12:46 | 36.75584 | 127.54288 | 900 ft | 93 kts | 167° |
| 2026-04-23 12:46 | 36.74968 | 127.54474 | 768 ft | 90 kts | 184° |
| 2026-04-23 12:46 | 36.74444 | 127.54220 | 703 ft | 75 kts | 224° |
| 2026-04-23 12:47 | 36.74119 | 127.53738 | 683 ft | 73 kts | 234° |
| 2026-04-23 12:47 | 36.73804 | 127.53217 | 617 ft | 78 kts | 233° |
| 2026-04-23 12:47 | 36.73471 | 127.52658 | 530 ft | 82 kts | 232° |
| 2026-04-23 12:47 | 36.73117 | 127.52090 | 414 ft | 82 kts | 233° |
| 2026-04-23 12:48 | 36.72770 | 127.51531 | 303 ft | 81 kts | 232° |
| 2026-04-23 12:48 | 36.72429 | 127.50981 | 212 ft | 78 kts | 232° |
| 2026-04-23 12:48 | 36.72131 | 127.50504 | 192 ft | 62 kts | 234° |
| 2026-04-23 12:48 | 36.71930 | 127.50175 | 190 ft | 38 kts | 232° |
| 2026-04-23 12:49 | 36.71801 | 127.49959 | 190 ft | 17 kts | 232° |
| 2026-04-23 12:49 | 36.71816 | 127.49869 | 190 ft | 8 kts | 312° |
| 2026-04-23 12:49 | 36.71839 | 127.49848 | 190 ft | 1 kts | 327° |
| 2026-04-23 12:49 | 36.71841 | 127.49846 | 190 ft | 0 kts | 316° |